Terminal Aerodrome Forecast
Issued by NWS Jackson, MS

Home | Current Version | Previous Version | Text Only | Print | Product List | Glossary On
Versions: 1 2 3 4 5 6 7 8 9 10 11 12 13 14 15 16 17 18 19
000
FTUS44 KMEG 180527
TAFTUP
TAF
KTUP 180527Z 1806/1906 32003KT P6SM VCSH OVC015
     FM181000 03004KT 4SM BR OVC005
     FM181400 04003KT P6SM OVC010
     FM190000 07004KT P6SM OVC015=

USA.gov is the U.S. government's official web portal to all federal, state and local government web resources and services.